Time,TemperatureF,DewpointF,PressureIn,WindDirection,WindDirectionDegrees,WindSpeedMPH,WindSpeedGustMPH,Humidity,HourlyPrecipIn,Conditions,Clouds,dailyrainin,SoftwareType,DateUTC
2013-09-21 00:14:00,66.0,65.0,29.79,WSW,254,8.0,10.0,97,0.01,,,0.19,,2013-09-21 04:14:00,
2013-09-21 00:24:00,66.0,65.0,29.79,WSW,254,3.0,8.0,97,0.01,,,0.19,,2013-09-21 04:24:00,
2013-09-21 00:54:00,65.0,64.0,29.79,WNW,300,10.0,16.0,95,0.00,,,0.19,,2013-09-21 04:54:00,
2013-09-21 01:13:00,65.0,63.0,29.79,WNW,286,10.0,14.0,94,0.01,,,0.20,,2013-09-21 05:13:00,
2013-09-21 01:23:00,64.0,62.0,29.79,WNW,291,5.0,11.0,93,0.01,,,0.20,,2013-09-21 05:23:00,
2013-09-21 01:43:00,63.0,61.0,29.78,WNW,290,9.0,15.0,92,0.01,,,0.20,,2013-09-21 05:43:00,
2013-09-21 01:53:00,63.0,60.0,29.78,WNW,292,6.0,11.0,91,0.01,,,0.20,,2013-09-21 05:53:00,
2013-09-21 02:12:00,62.0,59.0,29.78,WNW,290,8.0,12.0,91,0.00,,,0.20,,2013-09-21 06:12:00,
2013-09-21 02:22:00,62.0,59.0,29.78,WNW,288,6.0,11.0,91,0.00,,,0.20,,2013-09-21 06:22:00,
2013-09-21 02:42:00,62.0,60.0,29.79,WNW,287,4.0,12.0,92,0.00,,,0.20,,2013-09-21 06:42:00,
2013-09-21 02:53:00,62.0,60.0,29.78,WNW,288,3.0,10.0,92,0.00,,,0.20,,2013-09-21 06:53:00,
2013-09-21 03:11:00,61.0,59.0,29.78,WNW,288,2.0,7.0,92,0.00,,,0.20,,2013-09-21 07:11:00,
2013-09-21 03:22:00,61.0,59.0,29.78,WNW,288,4.0,9.0,93,0.00,,,0.20,,2013-09-21 07:22:00,
2013-09-21 03:52:00,60.0,58.0,29.77,WNW,287,0.0,6.0,93,0.00,,,0.20,,2013-09-21 07:52:00,
2013-09-21 04:13:00,60.0,58.0,29.77,WNW,288,0.0,0.0,93,0.00,,,0.20,,2013-09-21 08:13:00,
2013-09-21 04:22:00,60.0,58.0,29.77,WNW,287,0.0,7.0,93,0.00,,,0.20,,2013-09-21 08:22:00,
2013-09-21 04:52:00,59.0,57.0,29.77,WNW,288,5.0,7.0,93,0.00,,,0.20,,2013-09-21 08:52:00,
2013-09-21 05:22:00,58.0,56.0,29.76,WNW,286,0.0,6.0,93,0.00,,,0.20,,2013-09-21 09:22:00,
2013-09-21 05:54:00,57.0,55.0,29.75,WNW,286,0.0,0.0,93,0.00,,,0.20,,2013-09-21 09:54:00,
2013-09-21 06:12:00,57.0,55.0,29.76,WNW,286,0.0,6.0,93,0.00,,,0.20,,2013-09-21 10:12:00,
2013-09-21 06:23:00,56.0,54.0,29.75,WNW,286,0.0,0.0,93,0.00,,,0.20,,2013-09-21 10:23:00,
2013-09-21 06:42:00,56.0,54.0,29.76,WNW,286,2.0,6.0,93,0.00,,,0.20,,2013-09-21 10:42:00,
2013-09-21 06:52:00,56.0,54.0,29.76,WNW,286,0.0,0.0,94,0.00,,,0.20,,2013-09-21 10:52:00,
2013-09-21 07:12:00,55.0,53.0,29.76,WNW,286,0.0,0.0,94,0.00,,,0.20,,2013-09-21 11:12:00,
2013-09-21 07:23:00,55.0,53.0,29.77,WNW,286,3.0,7.0,94,0.00,,,0.20,,2013-09-21 11:23:00,
2013-09-21 07:52:00,54.0,53.0,29.78,WNW,284,8.0,10.0,95,0.00,,,0.20,,2013-09-21 11:52:00,
2013-09-21 08:22:00,54.0,53.0,29.78,West,280,5.0,7.0,95,0.00,,,0.20,,2013-09-21 12:22:00,
2013-09-21 08:52:00,54.0,53.0,29.78,WNW,291,3.0,7.0,96,0.00,,,0.20,,2013-09-21 12:52:00,
2013-09-21 09:11:00,54.0,53.0,29.78,WNW,285,6.0,10.0,96,0.00,,,0.20,,2013-09-21 13:11:00,
2013-09-21 09:21:00,55.0,54.0,29.78,WNW,300,6.0,11.0,97,0.00,,,0.20,,2013-09-21 13:21:00,
2013-09-21 09:42:00,56.0,55.0,29.79,WNW,287,10.0,15.0,97,0.00,,,0.20,,2013-09-21 13:42:00,
2013-09-21 09:53:00,57.0,56.0,29.79,WNW,294,10.0,13.0,96,0.00,,,0.20,,2013-09-21 13:53:00,
2013-09-21 10:11:00,59.0,57.0,29.79,WNW,294,4.0,14.0,94,0.00,,,0.20,,2013-09-21 14:11:00,
2013-09-21 10:22:00,60.0,58.0,29.80,WNW,298,11.0,15.0,92,0.00,,,0.20,,2013-09-21 14:22:00,
2013-09-21 10:42:00,61.0,58.0,29.79,West,280,13.0,17.0,89,0.00,,,0.20,,2013-09-21 14:42:00,
2013-09-21 10:52:00,62.0,58.0,29.80,WNW,303,11.0,16.0,88,0.00,,,0.20,,2013-09-21 14:52:00,
2013-09-21 11:12:00,62.0,58.0,29.80,WNW,291,10.0,17.0,87,0.00,,,0.20,,2013-09-21 15:12:00,
2013-09-21 11:22:00,63.0,57.0,29.80,NW,304,14.0,22.0,82,0.00,,,0.20,,2013-09-21 15:22:00,
2013-09-21 11:55:00,64.0,59.0,29.80,WNW,282,12.0,15.0,83,0.00,,,0.20,,2013-09-21 15:55:00,
2013-09-21 12:24:00,61.0,56.0,29.82,NNW,334,2.0,15.0,83,0.00,,,0.20,,2013-09-21 16:24:00,
2013-09-21 12:54:00,64.0,57.0,29.82,NNW,330,15.0,18.0,78,0.00,,,0.20,,2013-09-21 16:54:00,
2013-09-21 13:23:00,66.0,56.0,29.81,WNW,288,14.0,20.0,70,0.00,,,0.20,,2013-09-21 17:23:00,
2013-09-21 13:52:00,68.0,55.0,29.81,NNW,331,11.0,16.0,63,0.00,,,0.20,,2013-09-21 17:52:00,
2013-09-21 14:12:00,67.0,53.0,29.81,North,360,11.0,21.0,60,0.00,,,0.20,,2013-09-21 18:12:00,
2013-09-21 14:22:00,68.0,52.0,29.80,NNW,327,14.0,20.0,57,0.00,,,0.20,,2013-09-21 18:22:00,
2013-09-21 14:52:00,67.0,51.0,29.80,NW,323,15.0,24.0,57,0.00,,,0.12,,2013-09-21 18:52:00,
2013-09-21 15:11:00,67.0,51.0,29.80,NW,306,14.0,20.0,57,0.00,,,0.12,,2013-09-21 19:11:00,
2013-09-21 15:22:00,68.0,52.0,29.80,NW,319,7.0,19.0,57,0.00,,,0.12,,2013-09-21 19:22:00,
2013-09-21 15:52:00,67.0,50.0,29.80,NW,319,9.0,16.0,55,0.00,,,0.12,,2013-09-21 19:52:00,
2013-09-21 16:12:00,69.0,50.0,29.81,NW,309,14.0,22.0,51,0.00,,,0.12,,2013-09-21 20:12:00,
2013-09-21 16:22:00,69.0,48.0,29.80,WNW,295,14.0,20.0,48,0.00,,,0.12,,2013-09-21 20:22:00,
2013-09-21 16:52:00,68.0,51.0,29.80,NW,317,13.0,17.0,54,0.00,,,0.12,,2013-09-21 20:52:00,
2013-09-21 17:12:00,67.0,51.0,29.80,NW,323,11.0,17.0,56,0.00,,,0.12,,2013-09-21 21:12:00,
2013-09-21 17:22:00,69.0,52.0,29.81,NNW,340,16.0,23.0,54,0.00,,,0.12,,2013-09-21 21:22:00,
2013-09-21 17:44:00,67.0,51.0,29.81,NW,313,11.0,15.0,56,0.00,,,0.12,,2013-09-21 21:44:00,
2013-09-21 17:54:00,68.0,50.0,29.81,NW,310,19.0,21.0,53,0.00,,,0.12,,2013-09-21 21:54:00,
2013-09-21 18:24:00,66.0,49.0,29.83,NW,325,15.0,26.0,54,0.00,,,0.12,,2013-09-21 22:24:00,
2013-09-21 18:53:00,65.0,50.0,29.84,NNW,329,16.0,24.0,58,0.00,,,0.12,,2013-09-21 22:53:00,
2013-09-21 19:13:00,64.0,49.0,29.84,NW,312,13.0,22.0,59,0.00,,,0.12,,2013-09-21 23:13:00,
2013-09-21 19:23:00,62.0,48.0,29.85,NNW,331,13.0,20.0,61,0.00,,,0.12,,2013-09-21 23:23:00,
2013-09-21 19:53:00,61.0,48.0,29.85,NW,321,8.0,17.0,63,0.00,,,0.12,,2013-09-21 23:53:00,
2013-09-21 20:12:00,59.0,47.0,29.86,NNW,327,7.0,18.0,65,0.00,,,0.12,,2013-09-22 00:12:00,
2013-09-21 20:23:00,59.0,49.0,29.86,NNW,345,8.0,12.0,69,0.00,,,0.12,,2013-09-22 00:23:00,
2013-09-21 20:43:00,58.0,49.0,29.87,NNW,338,2.0,9.0,71,0.00,,,0.10,,2013-09-22 00:43:00,
2013-09-21 20:52:00,57.0,48.0,29.88,NNW,337,5.0,8.0,73,0.00,,,0.10,,2013-09-22 00:52:00,
2013-09-21 21:12:00,56.0,48.0,29.87,NNW,337,0.0,0.0,74,0.00,,,0.10,,2013-09-22 01:12:00,
2013-09-21 21:21:00,56.0,48.0,29.87,NNW,337,0.0,0.0,74,0.00,,,0.10,,2013-09-22 01:21:00,
2013-09-21 21:42:00,55.0,48.0,29.88,NNW,337,0.0,0.0,78,0.00,,,0.08,,2013-09-22 01:42:00,
2013-09-21 21:52:00,54.0,48.0,29.88,NNW,337,0.0,0.0,79,0.00,,,0.08,,2013-09-22 01:52:00,
2013-09-21 22:12:00,54.0,48.0,29.88,NNW,337,0.0,0.0,81,0.00,,,0.08,,2013-09-22 02:12:00,
2013-09-21 22:22:00,53.0,48.0,29.88,NNW,337,0.0,0.0,82,0.00,,,0.08,,2013-09-22 02:22:00,
2013-09-21 22:42:00,53.0,48.0,29.88,NNW,337,0.0,0.0,83,0.00,,,0.05,,2013-09-22 02:42:00,
2013-09-21 22:52:00,53.0,48.0,29.89,NNW,337,0.0,0.0,83,0.00,,,0.05,,2013-09-22 02:52:00,
2013-09-21 23:12:00,52.0,47.0,29.89,NNW,337,0.0,1.0,84,0.00,,,0.05,,2013-09-22 03:12:00,
2013-09-21 23:22:00,52.0,48.0,29.90,NNW,337,0.0,0.0,85,0.00,,,0.05,,2013-09-22 03:22:00,
2013-09-21 23:54:00,51.0,47.0,29.90,NNW,337,0.0,0.0,87,0.00,,,0.02,,2013-09-22 03:54:00,